createdAt,value
2018-10-18T00:00:46.739Z,9.10
2018-10-18T00:03:17.795Z,9.00
2018-10-18T00:05:48.696Z,9.00
2018-10-18T00:08:19.688Z,9.00
2018-10-18T00:10:51.440Z,8.90
2018-10-18T00:13:22.520Z,8.90
2018-10-18T00:15:53.411Z,8.90
2018-10-18T00:18:24.536Z,8.90
2018-10-18T00:20:55.458Z,8.80
2018-10-18T00:23:26.470Z,8.90
2018-10-18T00:25:57.424Z,8.90
2018-10-18T00:28:28.413Z,9.00
2018-10-18T00:30:59.332Z,8.80
2018-10-18T00:33:30.330Z,8.60
2018-10-18T00:36:01.385Z,8.80
2018-10-18T00:38:32.328Z,8.80
2018-10-18T00:41:03.227Z,8.70
2018-10-18T00:43:34.315Z,8.60
2018-10-18T00:46:05.619Z,8.60
2018-10-18T00:48:36.655Z,8.60
2018-10-18T00:51:07.750Z,8.70
2018-10-18T00:53:38.763Z,8.60
2018-10-18T00:56:09.758Z,8.60
2018-10-18T00:58:40.644Z,8.80
2018-10-18T01:01:11.566Z,8.90
2018-10-18T01:03:42.647Z,8.80
2018-10-18T01:06:13.615Z,8.70
2018-10-18T01:08:44.547Z,8.60
2018-10-18T01:11:15.427Z,8.70
2018-10-18T01:13:46.444Z,8.70
2018-10-18T01:16:17.334Z,8.60
2018-10-18T01:18:48.271Z,8.80
2018-10-18T01:21:19.251Z,8.90
2018-10-18T01:23:50.192Z,8.70
2018-10-18T01:26:21.090Z,8.80
2018-10-18T01:28:52.077Z,8.80
2018-10-18T01:31:23.039Z,9.00
2018-10-18T01:33:53.960Z,9.00
2018-10-18T01:36:25.168Z,9.00
2018-10-18T01:38:56.035Z,8.90
2018-10-18T01:41:26.927Z,8.80
2018-10-18T01:43:58.020Z,8.50
2018-10-18T01:46:28.856Z,8.50
2018-10-18T01:48:59.801Z,8.60
2018-10-18T01:51:30.676Z,8.70
2018-10-18T01:54:01.669Z,8.70
2018-10-18T01:56:32.516Z,8.70
2018-10-18T01:59:03.455Z,8.70
2018-10-18T02:01:34.331Z,8.70
2018-10-18T02:04:05.540Z,8.50
2018-10-18T02:06:36.436Z,8.20
2018-10-18T02:09:11.412Z,8.30
2018-10-18T02:11:43.042Z,8.30
2018-10-18T02:14:13.934Z,8.30
2018-10-18T02:16:44.753Z,8.20
2018-10-18T02:19:15.699Z,8.40
2018-10-18T02:21:46.552Z,8.40
2018-10-18T02:24:17.490Z,8.30
2018-10-18T02:26:48.291Z,8.30
2018-10-18T02:29:19.249Z,8.30
2018-10-18T02:31:50.076Z,8.30
2018-10-18T02:34:20.995Z,8.50
2018-10-18T02:36:51.937Z,8.60
2018-10-18T02:39:22.876Z,8.60
2018-10-18T02:41:54.131Z,8.60
2018-10-18T02:44:25.115Z,8.60
2018-10-18T02:46:56.058Z,8.50
2018-10-18T02:49:27.663Z,8.50
2018-10-18T02:51:58.595Z,8.60
2018-10-18T02:54:29.501Z,8.50
2018-10-18T02:57:00.456Z,8.50
2018-10-18T02:59:31.400Z,8.40
2018-10-18T03:02:02.301Z,8.50
2018-10-18T03:04:33.316Z,8.50
2018-10-18T03:07:04.328Z,8.50
2018-10-18T03:09:35.290Z,8.40
2018-10-18T03:12:06.802Z,8.40
2018-10-18T03:14:37.779Z,8.40
2018-10-18T03:17:08.693Z,8.20
2018-10-18T03:19:39.660Z,8.20
2018-10-18T03:22:10.564Z,8.20
2018-10-18T03:24:41.527Z,8.20
2018-10-18T03:27:12.458Z,8.10
2018-10-18T03:29:43.476Z,8.00
2018-10-18T03:32:14.398Z,7.90
2018-10-18T03:34:45.807Z,7.60
2018-10-18T03:37:16.788Z,7.50
2018-10-18T03:39:47.777Z,7.60
2018-10-18T03:42:18.789Z,7.80
2018-10-18T03:44:49.691Z,7.80
2018-10-18T03:47:20.571Z,7.60
2018-10-18T03:49:51.558Z,7.60
2018-10-18T03:52:22.523Z,7.60
2018-10-18T03:54:53.470Z,7.80
2018-10-18T03:57:24.372Z,7.60
2018-10-18T03:59:55.366Z,7.50
2018-10-18T04:02:26.271Z,7.70
2018-10-18T04:04:57.194Z,7.70
2018-10-18T04:07:28.089Z,7.60
2018-10-18T04:09:59.050Z,7.70
2018-10-18T04:12:29.974Z,7.90
2018-10-18T04:15:01.140Z,7.90
2018-10-18T04:17:32.286Z,8.00
2018-10-18T04:20:03.230Z,8.00
2018-10-18T04:22:34.262Z,8.10
2018-10-18T04:25:05.768Z,7.90
2018-10-18T04:27:36.771Z,7.70
2018-10-18T04:30:08.651Z,7.80
2018-10-18T04:32:39.622Z,7.70
2018-10-18T04:35:10.640Z,7.60
2018-10-18T04:37:41.603Z,7.70
2018-10-18T04:40:12.535Z,7.80
2018-10-18T04:42:43.543Z,7.70
2018-10-18T04:45:14.618Z,7.70
2018-10-18T04:47:45.847Z,7.60
2018-10-18T04:50:16.801Z,7.30
2018-10-18T04:52:47.729Z,7.10
2018-10-18T04:55:18.699Z,7.10
2018-10-18T04:57:49.540Z,7.30
2018-10-18T05:00:20.537Z,7.40
2018-10-18T05:02:51.656Z,7.40
2018-10-18T05:05:39.792Z,7.50
2018-10-18T05:08:10.723Z,7.50
2018-10-18T05:10:41.660Z,7.50
2018-10-18T05:13:12.581Z,7.40
2018-10-18T05:15:43.634Z,7.20
2018-10-18T05:18:14.542Z,7.30
2018-10-18T05:20:45.519Z,7.50
2018-10-18T05:23:16.423Z,7.60
2018-10-18T05:25:48.187Z,7.40
2018-10-18T05:28:19.098Z,7.40
2018-10-18T05:30:50.859Z,7.60
2018-10-18T05:33:21.736Z,7.60
2018-10-18T05:35:52.762Z,7.50
2018-10-18T05:38:23.865Z,7.60
2018-10-18T05:40:54.858Z,7.60
2018-10-18T05:43:26.114Z,7.70
2018-10-18T05:45:57.296Z,7.50
2018-10-18T05:48:28.507Z,7.30
2018-10-18T05:50:59.414Z,7.60
2018-10-18T05:53:30.395Z,7.60
2018-10-18T05:56:01.489Z,7.60
2018-10-18T05:58:32.332Z,7.50
2018-10-18T06:01:03.393Z,7.50
2018-10-18T06:03:34.342Z,7.50
2018-10-18T06:06:05.428Z,7.40
2018-10-18T06:08:36.407Z,7.60
2018-10-18T06:11:22.724Z,7.70
2018-10-18T06:13:54.104Z,7.80
2018-10-18T06:16:25.947Z,7.70
2018-10-18T06:18:56.880Z,7.70
2018-10-18T06:21:27.779Z,7.60
2018-10-18T06:23:58.869Z,7.50
2018-10-18T06:26:29.804Z,7.60
2018-10-18T06:29:00.989Z,7.80
2018-10-18T06:31:31.957Z,7.80
2018-10-18T06:34:03.000Z,7.90
2018-10-18T06:36:33.983Z,8.00
2018-10-18T06:39:06.564Z,8.20
2018-10-18T06:41:38.312Z,8.30
2018-10-18T06:44:09.498Z,8.30
2018-10-18T06:46:40.552Z,8.30
2018-10-18T06:49:11.612Z,8.00
2018-10-18T06:51:42.456Z,7.90
2018-10-18T06:54:13.582Z,8.00
2018-10-18T06:56:44.472Z,7.90
2018-10-18T06:59:15.554Z,7.90
2018-10-18T07:01:46.484Z,8.00
2018-10-18T07:04:17.424Z,7.60
2018-10-18T07:06:48.336Z,7.70
2018-10-18T07:09:19.372Z,7.90
2018-10-18T07:11:51.587Z,7.90
2018-10-18T07:14:22.532Z,8.10
2018-10-18T07:16:54.101Z,8.00
2018-10-18T07:19:25.136Z,7.90
2018-10-18T07:21:56.135Z,7.70
2018-10-18T07:24:27.110Z,7.70
2018-10-18T07:26:58.151Z,7.90
2018-10-18T07:29:29.180Z,7.90
2018-10-18T07:32:00.200Z,8.00
2018-10-18T07:34:31.255Z,8.20
2018-10-18T07:37:02.241Z,8.20
2018-10-18T07:39:33.163Z,8.40
2018-10-18T07:42:04.155Z,8.50
2018-10-18T07:44:35.245Z,8.50
2018-10-18T07:47:07.154Z,8.60
2018-10-18T07:49:38.292Z,8.60
2018-10-18T07:52:09.524Z,8.40
2018-10-18T07:54:40.554Z,8.50
2018-10-18T07:57:11.535Z,8.50
2018-10-18T07:59:42.559Z,8.50
2018-10-18T08:02:13.643Z,8.60
2018-10-18T08:04:44.744Z,8.80
2018-10-18T08:07:15.724Z,8.60
2018-10-18T08:09:46.707Z,8.80
2018-10-18T08:12:17.594Z,9.00
2018-10-18T08:14:48.509Z,9.10
2018-10-18T08:17:20.154Z,9.00
2018-10-18T08:19:51.088Z,8.90
2018-10-18T08:22:22.095Z,8.90
2018-10-18T08:24:53.093Z,8.90
2018-10-18T08:27:24.076Z,9.00
2018-10-18T08:29:55.179Z,9.10
2018-10-18T08:32:26.192Z,9.30
2018-10-18T08:34:57.216Z,9.40
2018-10-18T08:37:28.240Z,9.40
2018-10-18T08:39:59.272Z,9.50
2018-10-18T08:42:30.316Z,9.50
2018-10-18T08:45:01.311Z,9.80
2018-10-18T08:47:32.301Z,10.00
2018-10-18T08:50:03.615Z,10.30
2018-10-18T08:52:35.539Z,10.30
2018-10-18T08:55:08.125Z,10.50
2018-10-18T08:57:39.107Z,10.60
2018-10-18T09:00:11.754Z,10.70
2018-10-18T09:02:45.120Z,10.90
2018-10-18T09:05:16.707Z,10.90
2018-10-18T09:07:48.090Z,10.90
2018-10-18T09:10:19.095Z,10.90
2018-10-18T09:12:50.262Z,10.90
2018-10-18T09:15:21.317Z,11.00
2018-10-18T09:17:52.463Z,11.00
2018-10-18T09:20:23.679Z,11.00
2018-10-18T09:22:54.635Z,11.20
2018-10-18T09:25:25.742Z,11.50
2018-10-18T09:27:56.816Z,11.60
2018-10-18T09:30:27.908Z,11.60
2018-10-18T09:32:58.913Z,11.70
2018-10-18T09:35:30.251Z,11.80
2018-10-18T09:38:01.459Z,12.10
2018-10-18T09:40:32.660Z,12.10
2018-10-18T09:43:03.846Z,12.00
2018-10-18T09:45:34.998Z,12.20
2018-10-18T09:48:05.982Z,12.10
2018-10-18T09:50:37.011Z,12.20
2018-10-18T09:53:08.391Z,12.20
2018-10-18T09:55:39.689Z,12.30
2018-10-18T09:58:10.614Z,12.40
2018-10-18T10:00:46.832Z,12.70
2018-10-18T10:03:18.867Z,12.80
2018-10-18T10:05:49.884Z,13.30
2018-10-18T10:08:20.838Z,13.50
2018-10-18T10:10:52.060Z,14.10
2018-10-18T10:13:23.532Z,14.00
2018-10-18T10:15:54.554Z,14.00
2018-10-18T10:18:25.548Z,14.10
2018-10-18T10:20:56.591Z,14.10
2018-10-18T10:23:27.631Z,14.50
2018-10-18T10:25:58.659Z,14.40
2018-10-18T10:28:29.663Z,14.40
2018-10-18T10:31:00.721Z,14.40
2018-10-18T10:33:31.983Z,14.60
2018-10-18T10:36:03.013Z,14.50
2018-10-18T10:38:34.304Z,14.60
2018-10-18T10:41:05.654Z,14.60
2018-10-18T10:43:36.593Z,14.80
2018-10-18T10:46:07.878Z,15.10
2018-10-18T10:48:39.034Z,15.10
2018-10-18T10:51:10.279Z,15.10
2018-10-18T10:53:41.458Z,15.20
2018-10-18T10:56:12.705Z,15.00
2018-10-18T10:58:43.705Z,15.10
2018-10-18T11:01:21.712Z,15.20
2018-10-18T11:03:54.107Z,15.30
2018-10-18T11:06:25.485Z,15.40
2018-10-18T11:08:56.507Z,15.30
2018-10-18T11:11:27.767Z,15.50
2018-10-18T11:13:58.725Z,15.70
2018-10-18T11:16:29.918Z,15.50
2018-10-18T11:19:01.036Z,15.40
2018-10-18T11:21:32.204Z,15.30
2018-10-18T11:24:03.290Z,15.70
2018-10-18T11:26:34.471Z,15.70
2018-10-18T11:29:05.892Z,15.60
2018-10-18T11:31:36.980Z,15.70
2018-10-18T11:34:08.348Z,15.90
2018-10-18T11:36:39.414Z,16.20
2018-10-18T11:39:11.115Z,16.20
2018-10-18T11:41:42.198Z,16.10
2018-10-18T11:44:13.280Z,16.00
2018-10-18T11:46:44.334Z,15.90
2018-10-18T11:49:15.395Z,15.70
2018-10-18T11:51:46.743Z,15.60
2018-10-18T11:54:17.932Z,15.50
2018-10-18T11:56:49.319Z,15.40
2018-10-18T11:59:20.590Z,15.80
2018-10-18T12:01:51.768Z,16.00
2018-10-18T12:04:22.712Z,16.00
2018-10-18T12:06:53.772Z,16.00
2018-10-18T12:09:25.513Z,16.30
2018-10-18T12:11:56.520Z,16.50
2018-10-18T12:14:28.867Z,16.50
2018-10-18T12:17:01.576Z,16.30
2018-10-18T12:19:32.692Z,16.40
2018-10-18T12:22:06.431Z,16.30
2018-10-18T12:24:37.408Z,16.30
2018-10-18T12:27:08.683Z,16.50
2018-10-18T12:29:39.669Z,16.80
2018-10-18T12:32:13.476Z,16.90
2018-10-18T12:34:44.592Z,17.00
2018-10-18T12:37:15.631Z,17.00
2018-10-18T12:39:46.868Z,17.00
2018-10-18T12:42:17.934Z,16.80
2018-10-18T12:44:48.877Z,16.90
2018-10-18T12:47:20.074Z,17.10
2018-10-18T12:49:51.112Z,17.30
2018-10-18T12:52:22.174Z,17.40
2018-10-18T12:54:53.091Z,17.60
2018-10-18T12:57:24.174Z,17.60
2018-10-18T12:59:55.123Z,17.80
2018-10-18T13:02:26.545Z,17.80
2018-10-18T13:04:57.491Z,17.70
2018-10-18T13:07:28.703Z,17.80
2018-10-18T13:10:00.094Z,17.80
2018-10-18T13:12:31.527Z,17.90
2018-10-18T13:15:03.306Z,17.80
2018-10-18T13:17:34.524Z,17.60
2018-10-18T13:20:07.773Z,17.60
2018-10-18T13:22:39.730Z,17.80
2018-10-18T13:25:12.044Z,18.00
2018-10-18T13:27:43.952Z,18.00
2018-10-18T13:30:15.021Z,17.90
2018-10-18T13:32:45.960Z,18.00
2018-10-18T13:35:17.119Z,18.10
2018-10-18T13:37:48.180Z,18.20
2018-10-18T13:40:19.314Z,18.20
2018-10-18T13:42:50.292Z,18.20
2018-10-18T13:45:21.545Z,18.10
2018-10-18T13:47:52.824Z,17.90
2018-10-18T13:50:24.270Z,17.80
2018-10-18T13:52:55.339Z,17.90
2018-10-18T13:55:26.941Z,17.80
2018-10-18T13:57:58.004Z,17.90
2018-10-18T14:00:32.336Z,17.90
2018-10-18T14:03:03.394Z,17.80
2018-10-18T14:05:34.511Z,17.70
2018-10-18T14:08:05.921Z,17.80
2018-10-18T14:10:36.979Z,18.00
2018-10-18T14:13:07.980Z,18.20
2018-10-18T14:15:39.372Z,18.40
2018-10-18T14:18:10.460Z,18.50
2018-10-18T14:20:41.634Z,18.50
2018-10-18T14:23:12.687Z,18.30
2018-10-18T14:25:43.750Z,18.40
2018-10-18T14:28:15.617Z,18.50
2018-10-18T14:30:46.762Z,18.50
2018-10-18T14:33:17.794Z,18.60
2018-10-18T14:35:48.851Z,18.50
2018-10-18T14:38:19.940Z,18.50
2018-10-18T14:40:51.289Z,18.40
2018-10-18T14:43:22.515Z,18.40
2018-10-18T14:45:53.522Z,18.40
2018-10-18T14:48:24.663Z,18.30
2018-10-18T14:50:55.863Z,18.20
2018-10-18T14:53:27.313Z,18.20
2018-10-18T14:55:59.172Z,18.20
2018-10-18T14:58:30.496Z,18.10
2018-10-18T15:01:01.612Z,18.10
2018-10-18T15:03:32.660Z,17.90
2018-10-18T15:06:03.798Z,17.80
2018-10-18T15:08:34.857Z,17.70
2018-10-18T15:11:06.529Z,17.50
2018-10-18T15:13:37.767Z,17.30
2018-10-18T15:16:08.817Z,17.40
2018-10-18T15:18:40.048Z,17.30
2018-10-18T15:21:11.284Z,17.20
2018-10-18T15:23:42.420Z,17.10
2018-10-18T15:26:13.548Z,16.90
2018-10-18T15:28:46.097Z,17.00
2018-10-18T15:31:17.907Z,16.90
2018-10-18T15:33:48.991Z,16.80
2018-10-18T15:36:20.750Z,16.70
2018-10-18T15:38:52.559Z,16.70
2018-10-18T15:41:23.355Z,16.60
2018-10-18T15:43:54.854Z,16.50
2018-10-18T15:46:25.909Z,16.40
2018-10-18T15:48:57.139Z,16.40
2018-10-18T15:51:28.348Z,16.30
2018-10-18T15:53:59.418Z,16.40
2018-10-18T15:56:30.565Z,16.20
2018-10-18T15:59:01.533Z,16.00
2018-10-18T16:01:32.450Z,15.80
2018-10-18T16:04:03.567Z,15.90
2018-10-18T16:06:34.560Z,15.90
2018-10-18T16:09:08.700Z,15.80
2018-10-18T16:11:39.705Z,15.60
2018-10-18T16:14:11.089Z,15.40
2018-10-18T16:16:42.136Z,15.30
2018-10-18T16:19:13.125Z,15.40
2018-10-18T16:21:44.043Z,15.20
2018-10-18T16:24:15.141Z,15.00
2018-10-18T16:26:46.130Z,15.00
2018-10-18T16:29:18.370Z,15.00
2018-10-18T16:31:49.443Z,14.70
2018-10-18T16:34:20.707Z,14.70
2018-10-18T16:36:51.872Z,14.70
2018-10-18T16:39:24.270Z,14.20
2018-10-18T16:41:56.025Z,14.10
2018-10-18T16:44:27.144Z,14.20
2018-10-18T16:46:58.119Z,14.00
2018-10-18T16:49:29.297Z,14.00
2018-10-18T16:52:00.445Z,14.00
2018-10-18T16:54:32.301Z,14.00
2018-10-18T16:57:03.831Z,13.80
2018-10-18T16:59:35.377Z,13.70
2018-10-18T17:02:07.356Z,13.70
2018-10-18T17:04:38.482Z,13.70
2018-10-18T17:07:09.775Z,13.60
2018-10-18T17:09:40.800Z,13.80
2018-10-18T17:12:11.870Z,13.90
2018-10-18T17:14:42.943Z,13.70
2018-10-18T17:17:13.939Z,13.60
2018-10-18T17:19:45.371Z,13.70
2018-10-18T17:22:17.114Z,13.80
2018-10-18T17:24:48.928Z,13.80
2018-10-18T17:27:23.225Z,13.60
2018-10-18T17:29:54.220Z,13.70
2018-10-18T17:32:25.282Z,13.80
2018-10-18T17:34:57.474Z,13.80
2018-10-18T17:37:28.477Z,13.70
2018-10-18T17:40:00.428Z,13.70
2018-10-18T17:42:31.521Z,13.70
2018-10-18T17:45:02.574Z,13.70
2018-10-18T17:47:34.174Z,13.60
2018-10-18T17:50:05.466Z,13.60
2018-10-18T17:52:36.934Z,13.50
2018-10-18T17:55:09.232Z,13.40
2018-10-18T17:57:40.727Z,13.30
2018-10-18T18:00:13.685Z,13.20
2018-10-18T18:02:44.714Z,13.10
2018-10-18T18:05:16.802Z,13.10
2018-10-18T18:07:48.883Z,13.00
2018-10-18T18:10:21.225Z,13.10
2018-10-18T18:12:53.123Z,13.00
2018-10-18T18:15:24.278Z,13.00
2018-10-18T18:17:55.871Z,13.10
2018-10-18T18:20:27.113Z,13.10
2018-10-18T18:22:58.896Z,13.10
2018-10-18T18:25:30.058Z,13.20
2018-10-18T18:28:01.301Z,13.40
2018-10-18T18:30:32.532Z,13.50
2018-10-18T18:33:03.822Z,13.50
2018-10-18T18:35:35.274Z,13.50
2018-10-18T18:38:06.805Z,13.50
2018-10-18T18:40:39.312Z,13.50
2018-10-18T18:43:10.548Z,13.50
2018-10-18T18:45:48.505Z,13.50
2018-10-18T18:48:19.789Z,13.40
2018-10-18T18:50:51.214Z,13.50
2018-10-18T18:53:22.491Z,13.50
2018-10-18T18:55:55.072Z,13.50
2018-10-18T18:58:26.272Z,13.50
2018-10-18T19:00:58.124Z,13.50
2018-10-18T19:03:29.549Z,13.60
2018-10-18T19:06:03.094Z,13.60
2018-10-18T19:08:35.112Z,13.70
2018-10-18T19:11:06.631Z,13.70
2018-10-18T19:13:38.382Z,13.60
2018-10-18T19:16:09.879Z,13.50
2018-10-18T19:18:41.374Z,13.50
2018-10-18T19:21:12.636Z,13.50
2018-10-18T19:23:43.856Z,13.50
2018-10-18T19:26:15.319Z,13.40
2018-10-18T19:28:46.946Z,13.40
2018-10-18T19:31:18.386Z,13.40
2018-10-18T19:33:49.854Z,13.20
2018-10-18T19:36:21.133Z,13.20
2018-10-18T19:38:53.203Z,13.10
2018-10-18T19:41:24.712Z,12.90
2018-10-18T19:43:56.190Z,13.00
2018-10-18T19:46:27.961Z,13.10
2018-10-18T19:48:59.392Z,13.00
2018-10-18T19:51:30.968Z,13.00
2018-10-18T19:54:02.723Z,12.90
2018-10-18T19:56:33.927Z,13.00
2018-10-18T19:59:05.212Z,13.00
2018-10-18T20:01:38.132Z,13.00
2018-10-18T20:04:09.241Z,12.90
2018-10-18T20:06:40.728Z,12.80
2018-10-18T20:09:14.102Z,12.80
2018-10-18T20:11:45.386Z,12.80
2018-10-18T20:14:16.400Z,12.60
2018-10-18T20:16:47.404Z,12.60
2018-10-18T20:19:18.464Z,12.60
2018-10-18T20:21:49.562Z,12.40
2018-10-18T20:24:20.628Z,12.50
2018-10-18T20:26:51.851Z,12.60
2018-10-18T20:29:22.876Z,12.70
2018-10-18T20:31:54.868Z,12.60
2018-10-18T20:34:26.463Z,12.60
2018-10-18T20:36:57.834Z,12.60
2018-10-18T20:39:28.921Z,12.60
2018-10-18T20:42:00.086Z,12.60
2018-10-18T20:44:31.204Z,12.60
2018-10-18T20:47:02.813Z,12.40
2018-10-18T20:49:33.852Z,12.20
2018-10-18T20:52:05.322Z,11.90
2018-10-18T20:54:36.323Z,11.80
2018-10-18T20:57:07.652Z,11.70
2018-10-18T20:59:38.749Z,11.70
2018-10-18T21:02:10.744Z,11.80
2018-10-18T21:04:41.752Z,11.70
2018-10-18T21:07:13.113Z,11.70
2018-10-18T21:09:44.252Z,11.70
2018-10-18T21:12:15.334Z,11.60
2018-10-18T21:14:46.412Z,11.50
2018-10-18T21:17:17.476Z,11.50
2018-10-18T21:19:48.492Z,11.60
2018-10-18T21:22:19.902Z,11.50
2018-10-18T21:24:51.035Z,11.30
2018-10-18T21:27:22.162Z,11.30
2018-10-18T21:29:53.160Z,11.40
2018-10-18T21:32:24.398Z,11.40
2018-10-18T21:34:55.886Z,11.30
2018-10-18T21:37:27.039Z,11.20
2018-10-18T21:39:58.064Z,11.20
2018-10-18T21:42:29.135Z,11.30
2018-10-18T21:45:01.550Z,11.20
2018-10-18T21:47:32.974Z,11.20
2018-10-18T21:50:04.217Z,11.20
2018-10-18T21:52:35.496Z,11.10
2018-10-18T21:55:07.277Z,11.00
2018-10-18T21:57:38.449Z,11.10
2018-10-18T22:00:14.173Z,11.00
2018-10-18T22:02:46.147Z,11.00
2018-10-18T22:05:17.323Z,11.00
2018-10-18T22:07:48.375Z,10.90
2018-10-18T22:10:19.435Z,10.90
2018-10-18T22:12:53.420Z,10.90
2018-10-18T22:15:24.471Z,11.10
2018-10-18T22:17:55.532Z,11.00
2018-10-18T22:20:26.532Z,10.90
2018-10-18T22:22:57.729Z,10.70
2018-10-18T22:25:28.764Z,10.90
2018-10-18T22:27:59.865Z,10.90
2018-10-18T22:30:30.956Z,10.80
2018-10-18T22:33:02.003Z,10.70
2018-10-18T22:35:33.092Z,10.60
2018-10-18T22:38:04.391Z,10.70
2018-10-18T22:40:35.439Z,10.80
2018-10-18T22:43:07.039Z,10.70
2018-10-18T22:45:38.071Z,10.70
2018-10-18T22:48:09.151Z,10.50
2018-10-18T22:50:40.131Z,10.60
2018-10-18T22:53:11.245Z,10.40
2018-10-18T22:55:42.187Z,10.40
2018-10-18T22:58:13.436Z,10.40
2018-10-18T23:00:49.064Z,10.60
2018-10-18T23:03:21.737Z,10.60
2018-10-18T23:05:52.719Z,10.50
2018-10-18T23:08:23.791Z,10.50
2018-10-18T23:10:54.831Z,10.50
2018-10-18T23:13:25.872Z,10.50
2018-10-18T23:15:56.919Z,10.50
2018-10-18T23:18:27.888Z,10.50
2018-10-18T23:20:58.930Z,10.50
2018-10-18T23:23:29.971Z,10.40
2018-10-18T23:26:00.967Z,10.50
2018-10-18T23:28:31.931Z,10.50
2018-10-18T23:31:02.954Z,10.40
2018-10-18T23:33:34.054Z,10.30
2018-10-18T23:36:05.072Z,10.10
2018-10-18T23:38:36.195Z,10.00
2018-10-18T23:41:07.904Z,9.90
2018-10-18T23:43:38.853Z,9.90
2018-10-18T23:46:09.851Z,9.90
2018-10-18T23:48:40.871Z,9.90
2018-10-18T23:51:11.939Z,9.90
2018-10-18T23:53:42.911Z,10.00
2018-10-18T23:56:13.964Z,10.00
2018-10-18T23:58:44.954Z,9.90
